Edgar B Speer — WQZ9670 — position and weather

sailwx.info

Track history (hours):
 
Tides and Currents Weather Stations Pressure Air Temp Water Temp Dewpoint Dewpoint Depression Visibility Wind Speed Wind Dir Waves Ship Positions

Edgar B Speer

More information available from US FCC via Universal Licensing System and Coast Guard Vessel Documentation Center.

Last reported at 2014-Jul-23 09:33 UTC. Time now 2014-Jul-23 09:50 UTC.
Position N 45°44' W 085°60'.

Length 306 m; draft 8 m.

Type: Cargo ship. MMSI: 366971330.

Date/timePositionNaut miles runAvg speedWind from/ knotsBaromVisibWave heightAir tempDewpointWater temp
2014-Jul-23 09:33N 45°44' W 085°60'1312.5
2014-Jul-23 08:33N 45°50' W 085°44'1211.8
2014-Jul-23 07:33N 45°54' W 085°28'1212.3
2014-Jul-23 06:33N 45°52' W 085°11'1212.3
2014-Jul-23 05:33N 45°50' W 084°53'1111.1
2014-Jul-23 04:33N 45°50' W 084°37'1212.0
2014-Jul-23 03:33N 45°53' W 084°20'1212.3
2014-Jul-23 02:33N 45°55' W 084°03'8 7.6
2014-Jul-23 01:33N 45°59' W 083°53'9 9.4
2014-Jul-23 00:33N 46°06' W 084°01'43 4.7
2014-Jul-22 15:29N 46°36' W 084°45'1212.2
2014-Jul-22 14:31N 46°46' W 084°54'1412.1
2014-Jul-22 13:24N 46°53' W 085°11'1112.4
2014-Jul-22 12:31N 46°57' W 085°26'1212.4
2014-Jul-22 11:32N 47°02' W 085°42'1412.5
2014-Jul-22 10:27N 47°08' W 086°01'  
2014-Jul-20 06:22N 46°57' W 085°32'2413.3
2014-Jul-20 04:33N 46°48' W 084°59'2812.2
2014-Jul-20 02:13N 46°27' W 084°32'29 4.8
2014-Jul-19 20:16N 46°08' W 084°01'710.1
2014-Jul-19 19:32N 46°02' W 083°54'1010.6
2014-Jul-19 18:33N 45°53' W 084°02'1313.0
2014-Jul-19 17:33N 45°51' W 084°20'1312.6
2014-Jul-19 16:33N 45°50' W 084°38'1313.4
2014-Jul-19 15:33N 45°50' W 084°57'9 9.4
2014-Jul-19 14:33N 45°45' W 085°09'1413.7
2014-Jul-19 13:33N 45°34' W 085°21'1413.8
2014-Jul-19 12:33N 45°23' W 085°33'1413.9
2014-Jul-19 11:33N 45°12' W 085°45'1414.0
2014-Jul-19 10:33N 45°01' W 085°57'1313.5
2014-Jul-19 09:34N 44°54' W 086°13'1413.9
2014-Jul-19 08:33N 44°41' W 086°22'12 0.3
2014-Jul-17 13:05N 44°33' W 086°34'712.8
2014-Jul-17 12:33N 44°39' W 086°31'1312.9
2014-Jul-17 11:33N 44°52' W 086°26'1312.8
2014-Jul-17 10:33N 45°04' W 086°21'1313.0
2014-Jul-17 09:33N 45°16' W 086°16'1313.0
2014-Jul-17 08:33N 45°29' W 086°11'1312.7
2014-Jul-17 07:33N 45°41' W 086°05'1312.8
2014-Jul-17 06:33N 45°48' W 085°50'1312.5
2014-Jul-17 05:33N 45°53' W 085°34'1212.4
2014-Jul-17 04:33N 45°53' W 085°16'1312.7
2014-Jul-17 03:33N 45°51' W 084°58'1212.4
2014-Jul-17 02:33N 45°50' W 084°40'1212.1
2014-Jul-17 01:33N 45°52' W 084°24'1312.6
2014-Jul-17 00:33N 45°54' W 084°06'13 6.3
2014-Jul-16 22:33N 46°06' W 084°01'16 6.6
2014-Jul-16 20:09N 46°20' W 084°13'38 5.7
2014-Jul-16 13:25N 46°46' W 084°54'  
2014-Jul-13 16:08N 45°57' W 083°54'712.9
2014-Jul-13 15:33N 45°53' W 084°02'1413.5
2014-Jul-13 14:33N 45°50' W 084°21'1413.5
2014-Jul-13 13:33N 45°49' W 084°41'1414.0
2014-Jul-13 12:33N 45°50' W 085°01'9 9.4
2014-Jul-13 11:33N 45°44' W 085°11'1413.7
2014-Jul-13 10:33N 45°33' W 085°23'1413.9
2014-Jul-13 09:33N 45°21' W 085°35'  
Track history (hours):
 
Tides and Currents Weather Stations Pressure Air Temp Water Temp Dewpoint Dewpoint Depression Visibility Wind Speed Wind Dir Waves Ship Positions

Edgar B Speer

More information available from US FCC via Universal Licensing System and Coast Guard Vessel Documentation Center.

Last reported at 2014-Jul-23 09:33 UTC. Time now 2014-Jul-23 09:50 UTC.
Position N 45°44' W 085°60'.

Length 306 m; draft 8 m.

Type: Cargo ship. MMSI: 366971330.

Date/timePositionNaut miles runAvg speedWind from/ knotsBaromVisibWave heightAir tempDewpointWater temp
2014-Jul-23 09:33N 45°44' W 085°60'1312.5
2014-Jul-23 08:33N 45°50' W 085°44'1211.8
2014-Jul-23 07:33N 45°54' W 085°28'1212.3
2014-Jul-23 06:33N 45°52' W 085°11'1212.3
2014-Jul-23 05:33N 45°50' W 084°53'1111.1
2014-Jul-23 04:33N 45°50' W 084°37'1212.0
2014-Jul-23 03:33N 45°53' W 084°20'1212.3
2014-Jul-23 02:33N 45°55' W 084°03'8 7.6
2014-Jul-23 01:33N 45°59' W 083°53'9 9.4
2014-Jul-23 00:33N 46°06' W 084°01'43 4.7
2014-Jul-22 15:29N 46°36' W 084°45'1212.2
2014-Jul-22 14:31N 46°46' W 084°54'1412.1
2014-Jul-22 13:24N 46°53' W 085°11'1112.4
2014-Jul-22 12:31N 46°57' W 085°26'1212.4
2014-Jul-22 11:32N 47°02' W 085°42'1412.5
2014-Jul-22 10:27N 47°08' W 086°01'  
2014-Jul-20 06:22N 46°57' W 085°32'2413.3
2014-Jul-20 04:33N 46°48' W 084°59'2812.2
2014-Jul-20 02:13N 46°27' W 084°32'29 4.8
2014-Jul-19 20:16N 46°08' W 084°01'710.1
2014-Jul-19 19:32N 46°02' W 083°54'1010.6
2014-Jul-19 18:33N 45°53' W 084°02'1313.0
2014-Jul-19 17:33N 45°51' W 084°20'1312.6
2014-Jul-19 16:33N 45°50' W 084°38'1313.4
2014-Jul-19 15:33N 45°50' W 084°57'9 9.4
2014-Jul-19 14:33N 45°45' W 085°09'1413.7
2014-Jul-19 13:33N 45°34' W 085°21'1413.8
2014-Jul-19 12:33N 45°23' W 085°33'1413.9
2014-Jul-19 11:33N 45°12' W 085°45'1414.0
2014-Jul-19 10:33N 45°01' W 085°57'1313.5
2014-Jul-19 09:34N 44°54' W 086°13'1413.9
2014-Jul-19 08:33N 44°41' W 086°22'12 0.3
2014-Jul-17 13:05N 44°33' W 086°34'712.8
2014-Jul-17 12:33N 44°39' W 086°31'1312.9
2014-Jul-17 11:33N 44°52' W 086°26'1312.8
2014-Jul-17 10:33N 45°04' W 086°21'1313.0
2014-Jul-17 09:33N 45°16' W 086°16'1313.0
2014-Jul-17 08:33N 45°29' W 086°11'1312.7
2014-Jul-17 07:33N 45°41' W 086°05'1312.8
2014-Jul-17 06:33N 45°48' W 085°50'1312.5
2014-Jul-17 05:33N 45°53' W 085°34'1212.4
2014-Jul-17 04:33N 45°53' W 085°16'1312.7
2014-Jul-17 03:33N 45°51' W 084°58'1212.4
2014-Jul-17 02:33N 45°50' W 084°40'1212.1
2014-Jul-17 01:33N 45°52' W 084°24'1312.6
2014-Jul-17 00:33N 45°54' W 084°06'13 6.3
2014-Jul-16 22:33N 46°06' W 084°01'16 6.6
2014-Jul-16 20:09N 46°20' W 084°13'38 5.7
2014-Jul-16 13:25N 46°46' W 084°54'  
2014-Jul-13 16:08N 45°57' W 083°54'712.9
2014-Jul-13 15:33N 45°53' W 084°02'1413.5
2014-Jul-13 14:33N 45°50' W 084°21'1413.5
2014-Jul-13 13:33N 45°49' W 084°41'1414.0
2014-Jul-13 12:33N 45°50' W 085°01'9 9.4
2014-Jul-13 11:33N 45°44' W 085°11'1413.7
2014-Jul-13 10:33N 45°33' W 085°23'1413.9
2014-Jul-13 09:33N 45°21' W 085°35'  

Dump ship's entire track history